Pagina principale
METAR-TAF:

METAR-TAF

Aeroporti :

Aeroporto di Rzeszów-Jasionka

Rzeszów, Polonia

latitudine: 50-06N, longitudine: 022-03E, altezza: 200 m

Osservazione

Il bollettino è stato emesso 29 minuti fa, alle 12:30 UTC
Vento 6 kt da ovest/sud-ovest, variando fra sud/sud-est e ovest
Temperature 25°C
Umidità 47%
Pressione 1016 hPa
Visibilità 10 km o più
nessuna nube inferiore a 1500 m e nessun cumulonembo

METAR: EPRZ 171230Z 24006KT 160V260 CAVOK 25/13 Q1016

Ora: 14:59 (12:59 UTC)

Previsione

Il bollettino è stato emesso 1 ora e 29 minuti fa, alle 11:30 UTC
Previsione valida dal 17 alle 12 UTC al 18 alle 12 UTC
Vento 10 kt da ovest
Visibilità 10 km o più
nessuna nube inferiore a 1500 m e nessun cumulonembo
Evoluzione graduale
dal 17 alle 19 UTC al 17 alle 21 UTC
Vento 5 kt da sud

TAF: EPRZ 171130Z 1712/1812 27010KT CAVOK BECMG 1719/1721 18005KT

Osservazioni e previsioni meteorologiche di più di 4000 aeroporti (messaggi METAR e TAF).

Le stazioni disponibili sono rappresentate dai dischi gialli e rossi sulla carta.

Puntare il mouse per vedere il nome della stazione.

Clicca sopra per visualizzare le osservazioni e previsioni meteorologiche.

Per cambiare la mappa : fare clic sui pulsanti verdi con una croce nera per ingrandire, il pulsante verde con un trattino per diminuire, o sulla freccia verde per le mappe adiacenti.


METAR-TAF: